createdAt,value
2018-08-13T00:01:55.625Z,19.11
2018-08-13T00:04:23.713Z,19.23
2018-08-13T00:06:52.420Z,19.32
2018-08-13T00:09:20.778Z,19.33
2018-08-13T00:11:49.109Z,19.37
2018-08-13T00:14:16.844Z,19.34
2018-08-13T00:16:45.730Z,19.29
2018-08-13T00:19:13.470Z,19.16
2018-08-13T00:21:41.792Z,19.03
2018-08-13T00:24:10.690Z,18.95
2018-08-13T00:26:39.244Z,18.99
2018-08-13T00:29:07.331Z,19.03
2018-08-13T00:31:35.067Z,18.99
2018-08-13T00:34:03.380Z,18.96
2018-08-13T00:36:32.274Z,18.97
2018-08-13T00:39:01.588Z,18.99
2018-08-13T00:41:29.918Z,19.02
2018-08-13T00:43:58.249Z,19.01
2018-08-13T00:46:25.992Z,18.94
2018-08-13T00:48:54.882Z,18.86
2018-08-13T00:51:23.110Z,18.85
2018-08-13T00:53:51.519Z,18.81
2018-08-13T00:56:19.835Z,18.68
2018-08-13T00:58:48.171Z,18.58
2018-08-13T01:01:16.156Z,18.55
2018-08-13T01:03:44.230Z,18.66
2018-08-13T01:06:13.126Z,18.80
2018-08-13T01:08:41.442Z,18.90
2018-08-13T01:11:09.803Z,19.00
2018-08-13T01:13:37.538Z,19.07
2018-08-13T01:16:06.441Z,19.13
2018-08-13T01:18:34.771Z,19.16
2018-08-13T01:21:03.092Z,19.10
2018-08-13T01:23:30.884Z,19.09
2018-08-13T01:25:59.145Z,19.15
2018-08-13T01:28:27.461Z,19.18
2018-08-13T01:30:56.369Z,19.15
2018-08-13T01:33:24.702Z,19.12
2018-08-13T01:35:52.457Z,19.05
2018-08-13T01:38:21.353Z,18.98
2018-08-13T01:40:49.678Z,18.99
2018-08-13T01:43:17.996Z,18.96
2018-08-13T01:45:45.730Z,19.04
2018-08-13T01:48:14.625Z,19.05
2018-08-13T01:50:42.953Z,18.90
2018-08-13T01:53:10.685Z,18.82
2018-08-13T01:55:39.594Z,18.87
2018-08-13T01:58:07.337Z,18.93
2018-08-13T02:00:36.234Z,18.82
2018-08-13T02:03:04.557Z,18.70
2018-08-13T02:05:32.877Z,18.70
2018-08-13T02:08:00.610Z,18.75
2018-08-13T02:10:28.934Z,18.78
2018-08-13T02:12:57.312Z,18.86
2018-08-13T02:15:26.204Z,18.88
2018-08-13T02:17:53.958Z,18.78
2018-08-13T02:20:23.000Z,18.67
2018-08-13T02:22:51.308Z,18.50
2018-08-13T02:25:19.853Z,18.38
2018-08-13T02:27:47.365Z,18.37
2018-08-13T02:30:16.273Z,18.41
2018-08-13T02:32:44.660Z,18.37
2018-08-13T02:35:12.933Z,18.31
2018-08-13T02:37:41.253Z,18.25
2018-08-13T02:40:08.993Z,18.25
2018-08-13T02:42:37.306Z,18.28
2018-08-13T02:45:05.627Z,18.33
2018-08-13T02:47:33.963Z,18.41
2018-08-13T02:50:02.844Z,18.55
2018-08-13T02:52:30.596Z,18.61
2018-08-13T02:54:59.488Z,18.56
2018-08-13T02:57:27.250Z,18.55
2018-08-13T02:59:56.152Z,18.62
2018-08-13T03:02:23.891Z,18.63
2018-08-13T03:04:52.799Z,18.61
2018-08-13T03:07:20.574Z,18.51
2018-08-13T03:09:49.464Z,18.40
2018-08-13T03:12:17.799Z,18.39
2018-08-13T03:14:45.593Z,18.37
2018-08-13T03:17:13.912Z,18.28
2018-08-13T03:19:42.816Z,18.09
2018-08-13T03:22:10.562Z,18.00
2018-08-13T03:24:39.468Z,17.94
2018-08-13T03:27:07.805Z,17.93
2018-08-13T03:29:36.022Z,17.82
2018-08-13T03:32:04.456Z,17.75
2018-08-13T03:34:32.310Z,17.79
2018-08-13T03:37:00.518Z,17.78
2018-08-13T03:39:28.847Z,17.78
2018-08-13T03:41:57.749Z,17.80
2018-08-13T03:44:26.069Z,17.78
2018-08-13T03:46:54.386Z,17.80
2018-08-13T03:49:22.130Z,17.90
2018-08-13T03:51:51.041Z,17.94
2018-08-13T03:54:19.361Z,18.01
2018-08-13T03:56:47.679Z,18.03
2018-08-13T03:59:16.253Z,18.00
2018-08-13T04:01:44.204Z,17.84
2018-08-13T04:04:12.942Z,17.75
2018-08-13T04:06:41.271Z,17.81
2018-08-13T04:09:09.840Z,17.93
2018-08-13T04:11:37.932Z,18.06
2018-08-13T04:14:06.254Z,18.18
2018-08-13T04:16:34.591Z,18.21
2018-08-13T04:19:02.329Z,18.24
2018-08-13T04:21:31.224Z,18.27
2018-08-13T04:23:59.559Z,18.34
2018-08-13T04:26:27.293Z,18.43
2018-08-13T04:28:55.646Z,18.53
2018-08-13T04:31:23.972Z,18.58
2018-08-13T04:33:52.857Z,18.61
2018-08-13T04:36:21.199Z,18.69
2018-08-13T04:38:49.769Z,18.76
2018-08-13T04:41:18.348Z,18.84
2018-08-13T04:43:46.658Z,18.87
2018-08-13T04:46:14.977Z,18.87
2018-08-13T04:48:43.315Z,18.90
2018-08-13T04:51:11.637Z,18.88
2018-08-13T04:53:39.956Z,18.74
2018-08-13T04:56:08.273Z,18.76
2018-08-13T04:58:36.013Z,18.81
2018-08-13T05:01:04.325Z,18.90
2018-08-13T05:03:33.221Z,18.97
2018-08-13T05:06:01.543Z,19.00
2018-08-13T05:08:29.867Z,18.87
2018-08-13T05:10:58.171Z,18.86
2018-08-13T05:13:26.497Z,18.92
2018-08-13T05:15:54.824Z,18.99
2018-08-13T05:18:23.173Z,18.88
2018-08-13T05:20:52.220Z,18.74
2018-08-13T05:23:19.798Z,18.73
2018-08-13T05:25:47.541Z,18.76
2018-08-13T05:28:16.437Z,18.79
2018-08-13T05:30:44.766Z,18.79
2018-08-13T05:33:12.527Z,18.77
2018-08-13T05:35:40.846Z,18.74
2018-08-13T05:38:09.210Z,18.79
2018-08-13T05:40:37.493Z,18.84
2018-08-13T05:43:05.808Z,18.89
2018-08-13T05:45:34.713Z,18.86
2018-08-13T05:48:02.491Z,18.89
2018-08-13T05:50:30.824Z,18.81
2018-08-13T05:53:00.111Z,18.81
2018-08-13T05:55:28.932Z,18.86
2018-08-13T05:57:56.677Z,18.88
2018-08-13T06:00:25.570Z,18.97
2018-08-13T06:02:53.308Z,19.05
2018-08-13T06:05:22.204Z,19.14
2018-08-13T06:07:49.936Z,19.26
2018-08-13T06:10:18.858Z,19.40
2018-08-13T06:12:47.163Z,19.50
2018-08-13T06:15:15.498Z,19.61
2018-08-13T06:17:43.629Z,19.69
2018-08-13T06:20:12.161Z,19.79
2018-08-13T06:22:40.485Z,19.89
2018-08-13T06:25:09.382Z,19.98
2018-08-13T06:27:37.703Z,20.06
2018-08-13T06:30:06.035Z,20.13
2018-08-13T06:32:33.778Z,20.22
2018-08-13T06:35:02.209Z,20.30
2018-08-13T06:37:30.414Z,20.38
2018-08-13T06:39:59.345Z,20.48
2018-08-13T06:42:27.077Z,20.54
2018-08-13T06:44:55.392Z,20.56
2018-08-13T06:47:24.301Z,20.57
2018-08-13T06:49:52.623Z,20.63
2018-08-13T06:52:20.947Z,20.76
2018-08-13T06:54:48.691Z,20.82
2018-08-13T06:57:17.016Z,20.87
2018-08-13T06:59:45.920Z,20.92
2018-08-13T07:02:14.258Z,20.95
2018-08-13T07:04:42.593Z,20.99
2018-08-13T07:07:10.915Z,21.04
2018-08-13T07:09:38.648Z,21.10
2018-08-13T07:12:06.959Z,21.09
2018-08-13T07:14:35.281Z,21.13
2018-08-13T07:17:03.607Z,21.19
2018-08-13T07:19:32.772Z,21.25
2018-08-13T07:22:01.685Z,21.28
2018-08-13T07:24:30.361Z,21.33
2018-08-13T07:26:58.704Z,21.37
2018-08-13T07:29:26.997Z,21.44
2018-08-13T07:31:55.417Z,21.48
2018-08-13T07:34:23.067Z,21.56
2018-08-13T07:36:51.397Z,21.64
2018-08-13T07:39:19.788Z,21.73
2018-08-13T07:41:48.718Z,21.78
2018-08-13T07:44:17.883Z,21.84
2018-08-13T07:46:46.233Z,21.86
2018-08-13T07:49:14.555Z,21.89
2018-08-13T07:51:42.927Z,21.95
2018-08-13T07:54:12.768Z,22.00
2018-08-13T07:56:39.819Z,22.03
2018-08-13T07:59:08.146Z,22.13
2018-08-13T08:01:36.463Z,22.20
2018-08-13T08:04:04.791Z,22.18
2018-08-13T08:06:32.532Z,22.19
2018-08-13T08:09:01.491Z,22.28
2018-08-13T08:11:29.785Z,22.36
2018-08-13T08:13:57.516Z,22.41
2018-08-13T08:16:26.424Z,22.47
2018-08-13T08:18:54.182Z,22.54
2018-08-13T08:21:23.141Z,22.60
2018-08-13T08:23:51.435Z,22.64
2018-08-13T08:26:19.212Z,22.65
2018-08-13T08:28:48.100Z,22.63
2018-08-13T08:31:16.454Z,22.60
2018-08-13T08:33:44.744Z,22.61
2018-08-13T08:36:12.485Z,22.61
2018-08-13T08:38:41.373Z,22.62
2018-08-13T08:41:09.691Z,22.63
2018-08-13T08:43:38.030Z,22.60
2018-08-13T08:46:06.412Z,22.67
2018-08-13T08:48:34.177Z,22.74
2018-08-13T08:51:03.152Z,22.79
2018-08-13T08:53:31.524Z,22.81
2018-08-13T08:55:59.789Z,22.92
2018-08-13T08:58:28.169Z,23.03
2018-08-13T09:00:55.927Z,23.09
2018-08-13T09:03:24.829Z,23.18
2018-08-13T09:05:53.460Z,23.21
2018-08-13T09:08:21.729Z,23.33
2018-08-13T09:10:50.240Z,23.35
2018-08-13T09:13:18.583Z,23.34
2018-08-13T09:15:46.901Z,23.30
2018-08-13T09:18:27.158Z,23.27
2018-08-13T09:21:04.458Z,23.37
2018-08-13T09:23:39.293Z,23.44
2018-08-13T09:26:14.875Z,23.55
2018-08-13T09:28:50.399Z,23.62
2018-08-13T09:31:18.164Z,23.69
2018-08-13T09:33:56.932Z,23.78
2018-08-13T09:36:24.682Z,23.86
2018-08-13T09:38:53.574Z,23.91
2018-08-13T09:41:21.323Z,24.01
2018-08-13T09:43:49.685Z,24.04
2018-08-13T09:46:18.628Z,24.05
2018-08-13T09:48:46.940Z,24.07
2018-08-13T09:51:15.264Z,24.08
2018-08-13T09:53:43.058Z,24.11
2018-08-13T09:56:11.933Z,24.07
2018-08-13T09:58:40.309Z,24.08
2018-08-13T10:01:08.629Z,24.13
2018-08-13T10:03:37.174Z,24.17
2018-08-13T10:06:04.688Z,24.20
2018-08-13T10:08:33.045Z,24.23
2018-08-13T10:11:01.958Z,24.17
2018-08-13T10:13:30.287Z,24.22
2018-08-13T10:15:58.653Z,24.32
2018-08-13T10:18:26.396Z,24.35
2018-08-13T10:20:55.302Z,24.19
2018-08-13T10:23:23.675Z,24.20
2018-08-13T10:25:52.464Z,24.23
2018-08-13T10:28:20.928Z,24.30
2018-08-13T10:30:49.246Z,24.36
2018-08-13T10:33:18.200Z,24.39
2018-08-13T10:35:46.516Z,24.41
2018-08-13T10:38:14.833Z,24.37
2018-08-13T10:40:42.567Z,24.45
2018-08-13T10:43:11.493Z,24.49
2018-08-13T10:45:39.836Z,24.53
2018-08-13T10:48:08.197Z,24.62
2018-08-13T10:50:36.515Z,24.66
2018-08-13T10:53:04.254Z,24.69
2018-08-13T10:55:33.199Z,24.70
2018-08-13T10:58:01.310Z,24.68
2018-08-13T11:00:29.249Z,24.61
2018-08-13T11:02:57.671Z,24.66
2018-08-13T11:05:26.497Z,24.69
2018-08-13T11:07:54.821Z,24.63
2018-08-13T11:10:22.863Z,24.70
2018-08-13T11:12:50.881Z,24.86
2018-08-13T11:15:19.240Z,24.99
2018-08-13T11:17:48.134Z,25.12
2018-08-13T11:20:16.540Z,25.28
2018-08-13T11:22:44.279Z,25.35
2018-08-13T11:25:13.201Z,25.46
2018-08-13T11:27:41.497Z,25.52
2018-08-13T11:30:09.870Z,25.56
2018-08-13T11:32:37.619Z,25.48
2018-08-13T11:35:06.511Z,25.56
2018-08-13T11:37:34.237Z,25.69
2018-08-13T11:40:02.562Z,25.67
2018-08-13T11:42:31.469Z,25.62
2018-08-13T11:44:59.782Z,25.65
2018-08-13T11:47:27.527Z,25.81
2018-08-13T11:49:55.849Z,25.85
2018-08-13T11:52:24.209Z,25.97
2018-08-13T11:54:53.097Z,25.99
2018-08-13T11:57:21.434Z,26.13
2018-08-13T11:59:49.761Z,26.17
2018-08-13T12:04:45.862Z,26.46
2018-08-13T12:07:14.801Z,26.55
2018-08-13T12:09:43.128Z,26.39
2018-08-13T12:12:10.871Z,26.29
2018-08-13T12:14:39.865Z,26.45
2018-08-13T12:17:07.604Z,26.59
2018-08-13T12:19:36.593Z,26.76
2018-08-13T12:22:04.825Z,26.87
2018-08-13T12:24:33.143Z,27.04
2018-08-13T12:27:01.537Z,27.26
2018-08-13T12:29:29.881Z,27.46
2018-08-13T12:31:58.262Z,27.49
2018-08-13T12:34:26.606Z,27.54
2018-08-13T12:36:54.927Z,27.64
2018-08-13T12:39:23.233Z,27.73
2018-08-13T12:41:50.992Z,27.84
2018-08-13T12:44:19.866Z,28.06
2018-08-13T12:46:47.602Z,28.30
2018-08-13T12:49:15.917Z,28.61
2018-08-13T12:51:44.805Z,28.87
2018-08-13T12:54:13.129Z,28.97
2018-08-13T12:56:41.445Z,29.08
2018-08-13T12:59:09.181Z,29.24
2018-08-13T13:01:38.080Z,29.25
2018-08-13T13:04:06.368Z,29.40
2018-08-13T13:06:34.145Z,29.61
2018-08-13T13:09:03.116Z,29.75
2018-08-13T13:11:30.797Z,30.07
2018-08-13T13:13:59.110Z,30.27
2018-08-13T13:16:28.028Z,30.31
2018-08-13T13:19:17.469Z,30.50
2018-08-13T13:22:53.973Z,30.65
2018-08-13T13:24:33.759Z,30.71
2018-08-13T13:27:01.765Z,30.77
2018-08-13T13:29:30.667Z,30.64
2018-08-13T13:31:59.020Z,30.43
2018-08-13T13:34:27.373Z,30.42
2018-08-13T13:36:55.681Z,30.27
2018-08-13T13:39:23.999Z,30.20
2018-08-13T13:41:52.325Z,30.05
2018-08-13T13:44:20.659Z,29.83
2018-08-13T13:46:48.400Z,29.65
2018-08-13T13:49:17.290Z,29.42
2018-08-13T13:51:45.626Z,29.19
2018-08-13T13:54:14.103Z,28.98
2018-08-13T13:56:42.422Z,28.87
2018-08-13T13:59:10.879Z,28.76
2018-08-13T14:01:39.203Z,28.62
2018-08-13T14:04:06.949Z,28.72
2018-08-13T14:06:35.279Z,28.95
2018-08-13T14:09:03.599Z,29.13
2018-08-13T14:11:31.916Z,29.15
2018-08-13T14:14:00.808Z,29.17
2018-08-13T14:16:29.433Z,29.29
2018-08-13T14:18:57.186Z,29.44
2018-08-13T14:21:25.507Z,29.54
2018-08-13T14:23:54.409Z,29.73
2018-08-13T14:26:22.154Z,29.96
2018-08-13T14:28:51.088Z,30.31
2018-08-13T14:31:19.438Z,30.57
2018-08-13T14:33:47.250Z,30.66
2018-08-13T14:36:15.590Z,30.52
2018-08-13T14:38:44.488Z,30.29
2018-08-13T14:41:12.901Z,30.14
2018-08-13T14:43:40.656Z,29.94
2018-08-13T14:46:09.588Z,29.81
2018-08-13T14:48:37.330Z,29.63
2018-08-13T14:51:05.690Z,29.37
2018-08-13T14:53:33.971Z,29.14
2018-08-13T14:56:02.276Z,29.15
2018-08-13T14:58:30.647Z,29.17
2018-08-13T15:00:58.982Z,29.19
2018-08-13T15:03:27.934Z,29.09
2018-08-13T15:05:55.685Z,29.09
2018-08-13T15:08:24.609Z,29.10
2018-08-13T15:10:52.417Z,29.10
2018-08-13T15:13:20.888Z,29.36
2018-08-13T15:15:49.688Z,29.50
2018-08-13T15:18:18.019Z,29.52
2018-08-13T15:20:46.323Z,29.48
2018-08-13T15:23:14.216Z,29.43
2018-08-13T15:25:42.964Z,29.34
2018-08-13T15:28:10.846Z,29.18
2018-08-13T15:30:39.604Z,29.19
2018-08-13T15:33:07.954Z,29.29
2018-08-13T15:35:35.734Z,29.46
2018-08-13T15:38:04.062Z,29.64
2018-08-13T15:40:32.500Z,29.74
2018-08-13T15:43:01.749Z,30.04
2018-08-13T15:45:30.099Z,30.00
2018-08-13T15:47:58.471Z,29.64
2018-08-13T15:50:28.156Z,29.45
2018-08-13T15:52:55.108Z,29.03
2018-08-13T15:55:23.437Z,28.86
2018-08-13T15:57:51.192Z,28.66
2018-08-13T16:00:19.596Z,28.51
2018-08-13T16:02:48.503Z,28.27
2018-08-13T16:05:16.236Z,28.01
2018-08-13T16:07:45.140Z,27.85
2018-08-13T16:10:14.048Z,27.71
2018-08-13T16:12:41.810Z,27.55
2018-08-13T16:15:10.753Z,27.36
2018-08-13T16:17:37.891Z,27.23
2018-08-13T16:20:06.253Z,27.11
2018-08-13T16:22:35.209Z,27.19
2018-08-13T16:25:03.530Z,28.22
2018-08-13T16:27:31.297Z,28.60
2018-08-13T16:30:00.185Z,28.80
2018-08-13T16:32:28.504Z,28.64
2018-08-13T16:34:56.250Z,28.27
2018-08-13T16:37:25.276Z,27.90
2018-08-13T16:39:53.616Z,27.65
2018-08-13T16:42:21.986Z,27.46
2018-08-13T16:44:50.330Z,27.35
2018-08-13T16:47:18.645Z,27.15
2018-08-13T16:49:47.287Z,26.99
2018-08-13T16:52:15.060Z,26.96
2018-08-13T16:54:43.978Z,26.83
2018-08-13T16:57:11.757Z,26.68
2018-08-13T16:59:40.062Z,26.58
2018-08-13T17:02:08.984Z,26.62
2018-08-13T17:04:36.722Z,26.59
2018-08-13T17:07:05.041Z,26.54
2018-08-13T17:09:33.937Z,26.49
2018-08-13T17:12:02.260Z,26.47
2018-08-13T17:14:30.782Z,26.46
2018-08-13T17:16:58.910Z,26.37
2018-08-13T17:19:26.646Z,26.26
2018-08-13T17:21:54.978Z,26.10
2018-08-13T17:24:23.922Z,25.91
2018-08-13T17:26:51.726Z,25.85
2018-08-13T17:29:20.054Z,25.83
2018-08-13T17:31:48.937Z,25.76
2018-08-13T17:34:16.733Z,25.71
2018-08-13T17:36:45.121Z,25.67
2018-08-13T17:39:13.585Z,25.66
2018-08-13T17:41:42.406Z,25.56
2018-08-13T17:44:10.826Z,25.45
2018-08-13T17:46:39.306Z,25.40
2018-08-13T17:49:07.643Z,25.39
2018-08-13T17:51:35.368Z,25.35
2018-08-13T17:54:04.272Z,25.35
2018-08-13T17:56:32.595Z,25.29
2018-08-13T17:59:00.929Z,25.22
2018-08-13T18:01:31.077Z,25.16
2018-08-13T18:03:57.028Z,25.10
2018-08-13T18:06:25.923Z,24.88
2018-08-13T18:08:53.947Z,24.73
2018-08-13T18:11:22.013Z,24.69
2018-08-13T18:13:50.340Z,24.66
2018-08-13T18:16:19.227Z,24.65
2018-08-13T18:18:47.549Z,24.64
2018-08-13T18:21:16.008Z,24.57
2018-08-13T18:23:44.257Z,24.52
2018-08-13T18:26:12.016Z,24.47
2018-08-13T18:28:41.025Z,24.45
2018-08-13T18:31:09.369Z,24.34
2018-08-13T18:33:37.731Z,24.33
2018-08-13T18:36:05.549Z,24.34
2018-08-13T18:38:34.503Z,24.24
2018-08-13T18:41:02.823Z,24.15
2018-08-13T18:43:31.151Z,24.07
2018-08-13T18:46:00.475Z,24.02
2018-08-13T18:48:27.857Z,23.98
2018-08-13T18:50:56.187Z,23.98
2018-08-13T18:53:24.753Z,24.01
2018-08-13T18:55:52.841Z,23.94
2018-08-13T18:58:20.595Z,23.88
2018-08-13T19:00:49.509Z,23.87
2018-08-13T19:03:18.833Z,23.84
2018-08-13T19:05:47.154Z,23.76
2018-08-13T19:08:15.484Z,23.77
2018-08-13T19:10:43.825Z,23.78
2018-08-13T19:13:12.137Z,23.77
2018-08-13T19:15:39.873Z,23.77
2018-08-13T19:18:08.865Z,23.70
2018-08-13T19:20:37.143Z,23.65
2018-08-13T19:23:05.468Z,23.60
2018-08-13T19:25:33.824Z,23.57
2018-08-13T19:28:02.146Z,23.50
2018-08-13T19:30:30.465Z,23.47
2018-08-13T19:32:58.790Z,23.40
2018-08-13T19:35:27.110Z,23.38
2018-08-13T19:37:54.846Z,23.36
2018-08-13T19:40:23.781Z,23.33
2018-08-13T19:42:52.152Z,23.32
2018-08-13T19:45:20.478Z,23.25
2018-08-13T19:47:49.185Z,23.20
2018-08-13T19:50:17.232Z,23.12
2018-08-13T19:52:45.243Z,23.11
2018-08-13T19:55:14.150Z,23.01
2018-08-13T19:57:41.933Z,22.95
2018-08-13T20:00:10.857Z,22.89
2018-08-13T20:02:38.588Z,22.83
2018-08-13T20:05:06.915Z,22.79
2018-08-13T20:07:35.816Z,22.77
2018-08-13T20:10:04.175Z,22.78
2018-08-13T20:12:32.506Z,22.73
2018-08-13T20:15:00.829Z,22.78
2018-08-13T20:17:28.641Z,22.82
2018-08-13T20:19:56.977Z,22.84
2018-08-13T20:22:25.876Z,22.80
2018-08-13T20:24:54.197Z,22.74
2018-08-13T20:27:22.519Z,22.74
2018-08-13T20:29:51.042Z,22.73
2018-08-13T20:32:19.374Z,22.76
2018-08-13T20:34:47.708Z,22.71
2018-08-13T20:37:15.458Z,22.65
2018-08-13T20:39:44.357Z,22.61
2018-08-13T20:42:12.703Z,22.51
2018-08-13T20:44:40.454Z,22.44
2018-08-13T20:47:09.392Z,22.40
2018-08-13T20:49:37.719Z,22.37
2018-08-13T20:52:06.048Z,22.35
2018-08-13T20:54:33.804Z,22.32
2018-08-13T20:57:03.067Z,22.32
2018-08-13T20:59:31.391Z,22.33
2018-08-13T21:01:59.738Z,22.28
2018-08-13T21:04:27.901Z,22.24
2018-08-13T21:06:56.925Z,22.16
2018-08-13T21:09:25.241Z,22.18
2018-08-13T21:11:53.576Z,22.14
2018-08-13T21:14:22.113Z,22.13
2018-08-13T21:16:51.211Z,22.13
2018-08-13T21:19:19.890Z,22.13
2018-08-13T21:21:49.219Z,22.14
2018-08-13T21:24:17.618Z,22.09
2018-08-13T21:26:47.490Z,22.11
2018-08-13T21:29:16.401Z,22.08
2018-08-13T21:31:44.739Z,22.07
2018-08-13T21:34:12.511Z,22.09
2018-08-13T21:36:40.840Z,22.12
2018-08-13T21:39:09.753Z,22.13
2018-08-13T21:41:38.384Z,22.13
2018-08-13T21:44:07.345Z,22.11
2018-08-13T21:46:37.106Z,22.11
2018-08-13T21:49:06.460Z,22.13
2018-08-13T21:51:35.367Z,22.14
2018-08-13T21:54:03.111Z,22.14
2018-08-13T21:56:31.435Z,22.14
2018-08-13T21:58:59.751Z,22.14
2018-08-13T22:01:28.096Z,22.16
2018-08-13T22:04:25.538Z,22.18
2018-08-13T22:06:53.882Z,22.19
2018-08-13T22:09:21.642Z,22.23
2018-08-13T22:11:50.750Z,22.22
2018-08-13T22:14:19.657Z,22.27
2018-08-13T22:16:47.396Z,22.30
2018-08-13T22:19:17.151Z,22.34
2018-08-13T22:21:44.850Z,22.37
2018-08-13T22:24:25.704Z,22.33
2018-08-13T22:26:53.329Z,22.34
2018-08-13T22:29:21.911Z,22.36
2018-08-13T22:31:49.654Z,22.38
2018-08-13T22:34:18.544Z,22.36
2018-08-13T22:36:46.937Z,22.35
2018-08-13T22:39:15.301Z,22.33
2018-08-13T22:41:43.672Z,22.32
2018-08-13T22:44:11.982Z,22.29
2018-08-13T22:46:40.330Z,22.26
2018-08-13T22:49:09.012Z,22.27
2018-08-13T22:51:37.323Z,22.27
2018-08-13T22:54:06.270Z,22.27
2018-08-13T22:56:34.563Z,22.27
2018-08-13T22:59:02.881Z,22.19
2018-08-13T23:01:31.198Z,22.16
2018-08-13T23:03:58.923Z,22.16
2018-08-13T23:06:27.987Z,22.14
2018-08-13T23:08:55.592Z,22.14
2018-08-13T23:11:23.904Z,22.14
2018-08-13T23:13:53.076Z,22.11
2018-08-13T23:16:21.382Z,22.09
2018-08-13T23:18:49.112Z,22.08
2018-08-13T23:21:18.025Z,21.98
2018-08-13T23:23:46.334Z,21.90
2018-08-13T23:26:14.071Z,21.85
2018-08-13T23:28:43.214Z,21.88
2018-08-13T23:31:11.303Z,21.91
2018-08-13T23:33:39.619Z,21.91
2018-08-13T23:36:07.926Z,21.87
2018-08-13T23:38:36.251Z,21.86
2018-08-13T23:41:03.978Z,21.87
2018-08-13T23:43:32.743Z,21.90
2018-08-13T23:46:01.511Z,21.94
2018-08-13T23:48:30.100Z,21.97
2018-08-13T23:50:58.206Z,22.01
2018-08-13T23:53:25.935Z,22.02
2018-08-13T23:55:55.145Z,22.04
2018-08-13T23:58:23.450Z,22.06
